Time;durP1;ratioP1;P1;durP2;ratioP2;P2;SDS_P1;SDS_P2;PMS_P1;PMS_P2;Temp;Humidity;BMP_temperature;BMP_pressure;BME280_temperature;BME280_humidity;BME280_pressure;Samples;Min_cycle;Max_cycle;Signal;HPM_P1;HPM_P2
2022/06/26 00:00:24;;;;;;;6.30;5.47;;;22.80;99.20;;;;;;5022283;28;20704;-74
2022/06/26 00:03:12;;;;;;;5.95;5.38;;;22.80;99.90;;;;;;5019381;28;20314;-76
2022/06/26 00:06:06;;;;;;;6.43;4.95;;;22.80;99.90;;;;;;5021429;28;20218;-77
2022/06/26 00:08:54;;;;;;;8.07;5.75;;;22.80;99.90;;;;;;5019620;28;20217;-77
2022/06/26 00:11:43;;;;;;;8.32;5.45;;;22.80;99.90;;;;;;5019273;28;20222;-75
2022/06/26 00:14:31;;;;;;;10.27;5.40;;;22.60;99.90;;;;;;5005135;28;20233;-76
2022/06/26 00:17:20;;;;;;;5.82;5.15;;;22.60;99.90;;;;;;5008824;28;20232;-76
2022/06/26 00:20:10;;;;;;;6.80;5.53;;;22.60;99.90;;;;;;5007936;28;20226;-76
2022/06/26 00:22:59;;;;;;;9.30;5.97;;;22.70;99.90;;;;;;5021764;28;20252;-76
2022/06/26 00:25:48;;;;;;;6.95;5.53;;;22.70;99.90;;;;;;5026493;28;20221;-76
2022/06/26 00:28:37;;;;;;;10.50;5.90;;;22.70;99.90;;;;;;5024927;28;20241;-76
2022/06/26 00:31:25;;;;;;;9.45;5.50;;;22.70;99.90;;;;;;5024907;28;20232;-77
2022/06/26 00:34:14;;;;;;;7.85;5.43;;;22.70;99.90;;;;;;5021657;28;20228;-76
2022/06/26 00:37:03;;;;;;;6.32;5.45;;;22.70;99.90;;;;;;5016725;28;20221;-76
2022/06/26 00:39:53;;;;;;;9.38;5.43;;;22.70;99.90;;;;;;5009165;28;20226;-76
2022/06/26 00:42:42;;;;;;;7.13;5.38;;;22.60;99.90;;;;;;5010637;28;20234;-76
2022/06/26 00:45:30;;;;;;;5.70;5.20;;;22.60;99.90;;;;;;5006400;28;20312;-75
2022/06/26 00:48:19;;;;;;;7.63;6.15;;;22.70;99.90;;;;;;5023514;28;20248;-77
2022/06/26 00:51:08;;;;;;;7.68;5.75;;;22.70;99.90;;;;;;5023792;28;20890;-77
2022/06/26 00:53:57;;;;;;;7.93;5.90;;;22.70;99.90;;;;;;5023276;28;20221;-79
2022/06/26 00:56:47;;;;;;;7.82;5.30;;;22.60;99.90;;;;;;5027390;28;20244;-78
2022/06/26 00:59:36;;;;;;;7.63;5.97;;;22.60;99.90;;;;;;5031963;28;20255;-80
2022/06/26 01:02:25;;;;;;;16.88;6.13;;;22.60;99.90;;;;;;5019525;28;20228;-79
2022/06/26 01:05:14;;;;;;;7.57;5.95;;;22.50;99.90;;;;;;5032268;28;20241;-80
2022/06/26 01:08:03;;;;;;;7.75;6.03;;;22.30;99.90;;;;;;5029286;28;20225;-79
2022/06/26 01:10:52;;;;;;;6.47;5.82;;;22.40;99.90;;;;;;5022087;28;20731;-81
2022/06/26 01:13:41;;;;;;;7.35;5.95;;;22.50;99.90;;;;;;5013026;28;20222;-79
2022/06/26 01:16:30;;;;;;;8.02;5.75;;;22.50;99.90;;;;;;5043761;28;20228;-81
2022/06/26 01:19:21;;;;;;;8.75;6.07;;;22.40;99.90;;;;;;5025389;28;20304;-80
2022/06/26 01:22:09;;;;;;;8.20;5.55;;;22.20;99.90;;;;;;5013806;28;20637;-79
2022/06/26 01:25:03;;;;;;;11.30;5.57;;;22.10;99.90;;;;;;5004234;28;20722;-77
2022/06/26 01:27:55;;;;;;;8.45;5.82;;;22.20;99.90;;;;;;5035007;28;20604;-77
2022/06/26 01:30:44;;;;;;;6.47;5.60;;;22.20;99.90;;;;;;5020679;28;20720;-75
2022/06/26 01:33:34;;;;;;;6.38;5.72;;;22.20;99.90;;;;;;5022254;28;20226;-78
2022/06/26 01:36:26;;;;;;;6.80;6.10;;;22.20;99.90;;;;;;5023485;28;20221;-76
2022/06/26 01:39:19;;;;;;;11.60;6.10;;;22.10;99.90;;;;;;5005148;28;20230;-78
2022/06/26 01:42:09;;;;;;;8.63;6.10;;;22.10;99.90;;;;;;5008334;28;20329;-79
2022/06/26 01:44:58;;;;;;;6.20;5.50;;;22.00;99.90;;;;;;5019768;28;20735;-78
2022/06/26 01:47:46;;;;;;;6.78;5.97;;;22.10;99.90;;;;;;5010937;28;20339;-78
2022/06/26 01:50:35;;;;;;;11.00;5.72;;;22.20;99.90;;;;;;5009840;28;20688;-78
2022/06/26 01:53:25;;;;;;;10.75;6.57;;;22.10;99.90;;;;;;5010734;28;20405;-77
2022/06/26 01:56:13;;;;;;;7.82;6.40;;;22.10;99.90;;;;;;5019938;28;20633;-77
2022/06/26 01:59:07;;;;;;;7.60;6.90;;;21.90;99.90;;;;;;5012529;28;20260;-77
2022/06/26 02:02:04;;;;;;;7.28;6.57;;;22.10;99.90;;;;;;5009378;28;20217;-75
2022/06/26 02:04:53;;;;;;;11.85;6.35;;;22.00;99.90;;;;;;5011461;28;20274;-76
2022/06/26 02:07:42;;;;;;;7.85;6.78;;;21.90;99.90;;;;;;4998028;28;20220;-74
2022/06/26 02:13:43;;;;;;;9.00;6.43;;;21.90;99.90;;;;;;5002759;28;20225;-75
2022/06/26 02:16:34;;;;;;;8.60;6.30;;;21.90;99.90;;;;;;5018855;28;20217;-74
2022/06/26 02:19:23;;;;;;;7.10;6.40;;;21.70;99.90;;;;;;5031804;28;20225;-74
2022/06/26 02:22:11;;;;;;;9.75;6.50;;;21.60;99.90;;;;;;5020802;28;20221;-77
2022/06/26 02:25:00;;;;;;;8.88;6.97;;;21.60;99.90;;;;;;5007433;28;20226;-77
2022/06/26 02:27:49;;;;;;;9.95;6.28;;;21.60;99.90;;;;;;5016749;28;20311;-77
2022/06/26 02:30:38;;;;;;;7.50;5.88;;;21.60;99.90;;;;;;5026388;28;20221;-78
2022/06/26 02:33:29;;;;;;;8.63;6.60;;;21.70;99.90;;;;;;5004959;28;20243;-78
2022/06/26 02:36:17;;;;;;;7.32;6.57;;;21.70;99.90;;;;;;5007774;28;20900;-77
2022/06/26 02:39:06;;;;;;;7.05;6.35;;;21.60;99.90;;;;;;5009982;28;20229;-78
2022/06/26 02:41:54;;;;;;;8.05;6.47;;;21.40;99.90;;;;;;5023158;28;20656;-77
2022/06/26 02:44:44;;;;;;;9.75;6.50;;;21.50;99.90;;;;;;5005158;28;20237;-78
2022/06/26 02:47:32;;;;;;;8.15;6.47;;;21.60;99.90;;;;;;5021753;28;20235;-81
2022/06/26 02:50:23;;;;;;;8.60;6.70;;;21.70;99.90;;;;;;5019469;28;20221;-79
2022/06/26 02:53:13;;;;;;;8.00;7.07;;;21.70;99.90;;;;;;5006001;28;20257;-81
2022/06/26 02:56:01;;;;;;;8.00;6.70;;;21.80;99.90;;;;;;5007617;28;20217;-81
2022/06/26 02:58:53;;;;;;;7.35;6.60;;;21.70;99.90;;;;;;5007253;28;20221;-80
2022/06/26 03:01:43;;;;;;;9.48;6.90;;;21.60;99.90;;;;;;5019966;28;20291;-81
2022/06/26 03:04:51;;;;;;;8.10;7.30;;;21.70;99.90;;;;;;5021794;28;20241;-83
2022/06/26 03:07:42;;;;;;;11.43;6.97;;;21.70;99.90;;;;;;5017711;28;20240;-73
2022/06/26 03:10:31;;;;;;;8.13;6.85;;;21.70;99.90;;;;;;5003980;28;20297;-79
2022/06/26 03:13:22;;;;;;;8.75;6.50;;;21.60;99.90;;;;;;4999900;28;20902;-76
2022/06/26 03:16:11;;;;;;;8.00;7.20;;;21.70;99.90;;;;;;5010175;28;20220;-75
2022/06/26 03:19:03;;;;;;;7.13;6.43;;;21.80;99.90;;;;;;5008271;28;20221;-82
2022/06/26 03:21:52;;;;;;;8.82;6.75;;;21.80;99.90;;;;;;5021279;28;20225;-83
2022/06/26 03:24:42;;;;;;;11.23;7.20;;;21.90;99.90;;;;;;5010562;28;20240;-84
2022/06/26 03:27:30;;;;;;;7.97;6.60;;;21.90;99.90;;;;;;5008410;28;20347;-76
2022/06/26 03:30:20;;;;;;;13.10;6.80;;;21.90;99.90;;;;;;5018630;28;20222;-78
2022/06/26 03:33:12;;;;;;;7.55;6.32;;;22.00;99.90;;;;;;5018875;28;20241;-77
2022/06/26 03:36:01;;;;;;;7.72;6.30;;;22.00;99.90;;;;;;5000068;28;20217;-76
2022/06/26 03:38:49;;;;;;;7.93;6.43;;;22.10;99.90;;;;;;5004222;28;20237;-77
2022/06/26 03:41:39;;;;;;;11.43;7.07;;;21.80;99.90;;;;;;5007227;28;20217;-75
2022/06/26 03:44:30;;;;;;;14.65;6.68;;;22.00;99.90;;;;;;5009903;28;20228;-76
2022/06/26 03:47:19;;;;;;;10.48;6.45;;;22.20;99.90;;;;;;5007023;28;20229;-75
2022/06/26 03:50:12;;;;;;;8.90;6.53;;;22.20;99.90;;;;;;5020996;28;20221;-78
2022/06/26 03:53:09;;;;;;;8.77;7.07;;;22.20;99.90;;;;;;5022007;28;20209;-78
2022/06/26 03:56:00;;;;;;;7.65;6.13;;;22.10;99.90;;;;;;5003429;28;20277;-78
2022/06/26 03:58:51;;;;;;;14.35;6.28;;;22.10;99.90;;;;;;5005704;28;20384;-78
2022/06/26 04:01:40;;;;;;;8.95;6.80;;;22.00;99.90;;;;;;5011893;28;20248;-78
2022/06/26 04:04:33;;;;;;;10.30;6.30;;;22.10;99.90;;;;;;5023535;28;20643;-80
2022/06/26 04:07:21;;;;;;;8.30;6.30;;;22.10;99.90;;;;;;5025002;28;20276;-77
2022/06/26 04:10:18;;;;;;;7.13;6.30;;;22.10;99.90;;;;;;5013117;28;20237;-74
2022/06/26 04:13:09;;;;;;;6.55;5.95;;;22.10;99.90;;;;;;5013149;28;20252;-76
2022/06/26 04:16:02;;;;;;;9.73;6.32;;;22.10;99.90;;;;;;5011398;28;20244;-74
2022/06/26 04:18:53;;;;;;;9.15;6.20;;;22.20;99.90;;;;;;5011617;28;20234;-75
2022/06/26 04:21:42;;;;;;;8.70;6.00;;;22.20;99.90;;;;;;5015164;28;20237;-76
2022/06/26 04:24:30;;;;;;;8.00;6.15;;;22.20;99.90;;;;;;5010245;28;20217;-77
2022/06/26 04:27:20;;;;;;;7.55;6.30;;;22.40;99.90;;;;;;5006271;28;20222;-77
2022/06/26 04:30:10;;;;;;;7.88;6.00;;;22.60;99.90;;;;;;5010177;28;20228;-77
2022/06/26 04:33:04;;;;;;;8.88;6.30;;;22.70;99.90;;;;;;5013548;28;20731;-75
2022/06/26 04:35:54;;;;;;;6.70;6.00;;;22.70;99.90;;;;;;5007165;28;20300;-74
2022/06/26 04:38:43;;;;;;;6.13;5.50;;;22.80;99.90;;;;;;5025283;28;20225;-76
2022/06/26 04:41:39;;;;;;;11.30;5.72;;;22.90;99.90;;;;;;5010041;28;20221;-76
2022/06/26 04:44:27;;;;;;;6.47;5.43;;;22.80;99.90;;;;;;5010124;28;20256;-79
2022/06/26 04:47:18;;;;;;;8.85;6.00;;;23.00;99.90;;;;;;5005755;28;20236;-81
2022/06/26 04:50:17;;;;;;;6.75;5.70;;;23.10;99.90;;;;;;5020352;28;20218;-81
2022/06/26 04:53:06;;;;;;;7.28;5.70;;;23.20;99.90;;;;;;5006627;28;20688;-83
2022/06/26 04:55:56;;;;;;;8.05;5.75;;;23.20;99.90;;;;;;5016010;28;20691;-83
2022/06/26 04:58:45;;;;;;;6.30;5.60;;;23.30;99.90;;;;;;5009562;28;20236;-80
2022/06/26 05:01:33;;;;;;;6.80;5.90;;;23.30;99.90;;;;;;5019905;28;20304;-81
2022/06/26 05:04:47;;;;;;;7.57;5.50;;;23.20;99.90;;;;;;5014626;28;20232;-81
2022/06/26 05:08:04;;;;;;;8.77;5.70;;;23.40;99.90;;;;;;5000024;28;20632;-75
2022/06/26 05:10:55;;;;;;;5.70;5.20;;;23.60;99.90;;;;;;5023018;28;20228;-82
2022/06/26 05:13:44;;;;;;;9.40;5.50;;;23.60;99.90;;;;;;5023001;28;20324;-83
2022/06/26 05:16:56;;;;;;;7.10;5.50;;;23.60;99.90;;;;;;5017341;28;20226;-82
2022/06/26 05:19:47;;;;;;;7.15;5.38;;;23.80;99.90;;;;;;5016976;28;20228;-81
2022/06/26 05:22:36;;;;;;;8.63;5.10;;;23.90;99.90;;;;;;5014331;28;20218;-80
2022/06/26 05:25:26;;;;;;;7.78;5.85;;;24.00;99.90;;;;;;5019921;28;20376;-81
2022/06/26 05:28:16;;;;;;;6.65;5.30;;;24.00;99.90;;;;;;5029356;28;20228;-81
2022/06/26 05:31:05;;;;;;;8.23;5.22;;;24.20;99.90;;;;;;5009472;28;20939;-80
2022/06/26 05:33:57;;;;;;;10.50;5.10;;;24.30;98.80;;;;;;5016086;28;20645;-81
2022/06/26 05:36:54;;;;;;;5.50;4.93;;;24.40;99.00;;;;;;5019668;28;20627;-81
2022/06/26 05:39:42;;;;;;;7.13;5.15;;;24.50;98.20;;;;;;5011172;28;20229;-81
2022/06/26 05:42:33;;;;;;;9.57;5.15;;;24.60;97.60;;;;;;5009112;28;20221;-83
2022/06/26 05:45:21;;;;;;;9.32;5.07;;;24.70;97.10;;;;;;5011118;28;20725;-82
2022/06/26 05:48:33;;;;;;;5.57;5.07;;;24.70;95.70;;;;;;5023138;28;20872;-82
2022/06/26 05:51:40;;;;;;;6.55;5.38;;;24.80;95.20;;;;;;5011053;28;20229;-82
2022/06/26 05:54:43;;;;;;;7.63;4.93;;;24.80;95.90;;;;;;5008059;28;20229;-82
2022/06/26 05:58:01;;;;;;;5.40;4.90;;;24.90;94.90;;;;;;5008538;28;20225;-81
2022/06/26 06:01:15;;;;;;;5.53;5.00;;;24.90;94.40;;;;;;5024803;28;20232;-81
2022/06/26 06:04:07;;;;;;;9.13;4.88;;;25.10;94.40;;;;;;5022730;28;20279;-82
2022/06/26 06:06:57;;;;;;;5.30;4.80;;;25.30;94.40;;;;;;5005805;28;20229;-82
2022/06/26 06:09:46;;;;;;;5.40;4.70;;;25.30;93.10;;;;;;5022674;28;20272;-80
2022/06/26 06:12:35;;;;;;;9.57;5.20;;;25.30;92.60;;;;;;5007959;28;20230;-80
2022/06/26 06:15:26;;;;;;;5.15;4.45;;;25.50;92.90;;;;;;5009292;28;20733;-80
2022/06/26 06:18:19;;;;;;;6.47;4.53;;;25.70;91.90;;;;;;5035295;28;20225;-75
2022/06/26 06:21:08;;;;;;;7.63;4.80;;;25.60;91.50;;;;;;5006047;28;20309;-80
2022/06/26 06:23:58;;;;;;;5.53;4.50;;;25.80;91.50;;;;;;5026146;28;20220;-79
2022/06/26 06:26:47;;;;;;;9.07;5.13;;;26.50;89.30;;;;;;5023042;28;20676;-80
2022/06/26 06:29:42;;;;;;;6.30;4.50;;;27.60;85.90;;;;;;5016812;28;20240;-80
2022/06/26 06:32:33;;;;;;;8.05;5.57;;;28.70;81.00;;;;;;4996180;28;20292;-81
2022/06/26 06:35:22;;;;;;;7.07;4.40;;;28.30;80.80;;;;;;5020331;28;20221;-78
2022/06/26 06:38:11;;;;;;;5.72;4.32;;;27.80;79.40;;;;;;5020341;28;20236;-79
2022/06/26 06:41:06;;;;;;;7.00;4.82;;;27.50;81.50;;;;;;5009056;28;20225;-79
2022/06/26 06:44:15;;;;;;;5.07;4.57;;;27.20;84.60;;;;;;5021277;28;20871;-79
2022/06/26 06:47:26;;;;;;;4.70;4.30;;;27.10;85.20;;;;;;5011243;28;20740;-78
2022/06/26 06:50:46;;;;;;;4.90;4.45;;;27.20;84.40;;;;;;4978278;28;20236;-80
2022/06/26 06:53:35;;;;;;;5.32;4.18;;;27.50;83.30;;;;;;5008448;28;20225;-80
2022/06/26 06:56:23;;;;;;;5.10;4.60;;;27.70;81.60;;;;;;5016634;28;20364;-77
2022/06/26 06:59:12;;;;;;;4.50;3.80;;;27.70;80.70;;;;;;5006923;28;20519;-80
2022/06/26 07:02:04;;;;;;;4.63;3.65;;;27.60;79.00;;;;;;5017885;28;20680;-78
2022/06/26 07:04:56;;;;;;;4.57;4.18;;;27.60;78.20;;;;;;5033277;28;20256;-81
2022/06/26 07:07:46;;;;;;;3.97;3.58;;;27.70;78.30;;;;;;5009869;28;20233;-81
2022/06/26 07:10:35;;;;;;;4.82;3.40;;;27.80;77.90;;;;;;5049842;28;20271;-82
2022/06/26 07:13:23;;;;;;;5.85;3.80;;;27.90;76.40;;;;;;5040300;28;20228;-79
2022/06/26 07:16:12;;;;;;;4.60;3.47;;;28.10;74.10;;;;;;5035421;28;20209;-81
2022/06/26 07:19:01;;;;;;;4.53;3.58;;;28.60;74.70;;;;;;5027770;28;20280;-81
2022/06/26 07:21:49;;;;;;;4.95;3.67;;;28.40;73.30;;;;;;5026584;28;20538;-84
2022/06/26 07:24:39;;;;;;;4.07;3.42;;;28.80;73.50;;;;;;5022028;28;20221;-81
2022/06/26 07:27:47;;;;;;;4.30;3.90;;;28.80;72.60;;;;;;5024801;28;20229;-79
2022/06/26 07:30:35;;;;;;;4.97;4.13;;;28.70;72.00;;;;;;5021381;28;20288;-80
2022/06/26 07:36:32;;;;;;;4.20;3.42;;;29.40;71.20;;;;;;5021028;28;20217;-72
2022/06/26 07:39:22;;;;;;;4.90;3.63;;;29.80;70.70;;;;;;5010914;28;20587;-74
2022/06/26 07:42:13;;;;;;;5.60;3.45;;;30.30;69.50;;;;;;5006533;28;20247;-74
2022/06/26 07:45:06;;;;;;;7.22;3.60;;;30.70;68.20;;;;;;5007215;28;20298;-75
2022/06/26 07:48:11;;;;;;;5.68;3.65;;;30.50;65.40;;;;;;5003192;28;20235;-74
2022/06/26 07:51:01;;;;;;;3.92;3.60;;;30.80;66.50;;;;;;5005714;28;20242;-75
2022/06/26 07:53:52;;;;;;;4.93;3.40;;;31.30;66.40;;;;;;5021589;28;20363;-76
2022/06/26 07:56:40;;;;;;;4.15;3.25;;;31.30;61.60;;;;;;5008816;28;20544;-73
2022/06/26 07:59:34;;;;;;;10.30;3.17;;;31.80;62.60;;;;;;5020454;28;20631;-72
2022/06/26 08:02:23;;;;;;;5.60;3.17;;;32.20;61.50;;;;;;5005674;28;20311;-74
2022/06/26 08:05:12;;;;;;;6.88;2.97;;;32.40;59.70;;;;;;5023913;28;20221;-74
2022/06/26 08:08:00;;;;;;;3.90;2.97;;;32.60;58.40;;;;;;5006322;28;20239;-74
2022/06/26 08:10:55;;;;;;;7.07;3.00;;;32.90;57.40;;;;;;5020317;28;20232;-74
2022/06/26 08:13:43;;;;;;;5.57;3.40;;;32.60;57.60;;;;;;5009919;28;20221;-74
2022/06/26 08:16:33;;;;;;;4.88;2.80;;;32.80;56.70;;;;;;5003647;28;20221;-75
2022/06/26 08:19:22;;;;;;;4.72;2.88;;;33.20;57.20;;;;;;5006927;28;20311;-72
2022/06/26 08:22:10;;;;;;;6.50;3.13;;;33.40;55.80;;;;;;5010590;28;20295;-74
2022/06/26 08:24:59;;;;;;;4.40;3.20;;;33.80;56.40;;;;;;5007318;28;20291;-75
2022/06/26 08:27:47;;;;;;;3.88;2.80;;;33.80;56.10;;;;;;5017063;28;20241;-74
2022/06/26 08:30:36;;;;;;;5.70;3.00;;;34.30;55.60;;;;;;5020487;28;20218;-73
2022/06/26 08:33:29;;;;;;;4.15;3.20;;;34.30;54.00;;;;;;5007030;28;20233;-74
2022/06/26 08:36:18;;;;;;;4.15;2.80;;;34.30;53.30;;;;;;5021336;28;20236;-73
2022/06/26 08:39:06;;;;;;;6.10;2.85;;;34.60;53.80;;;;;;5008923;28;20217;-72
2022/06/26 08:41:56;;;;;;;5.30;2.80;;;34.80;53.00;;;;;;5009510;28;20243;-73
2022/06/26 08:44:46;;;;;;;2.90;2.67;;;35.00;52.50;;;;;;5019616;28;20229;-73
2022/06/26 08:47:39;;;;;;;4.32;2.58;;;34.80;52.00;;;;;;5017373;28;20225;-74
2022/06/26 08:50:30;;;;;;;2.97;2.72;;;35.20;51.50;;;;;;5018590;28;20213;-74
2022/06/26 08:53:20;;;;;;;5.75;2.83;;;35.80;51.50;;;;;;5023234;28;20314;-72
2022/06/26 08:56:09;;;;;;;3.10;2.80;;;35.90;50.50;;;;;;5004196;28;20221;-75
2022/06/26 08:58:58;;;;;;;3.20;2.72;;;35.90;50.20;;;;;;5021318;28;20221;-74
2022/06/26 09:01:47;;;;;;;3.70;2.60;;;36.00;50.70;;;;;;5023353;28;20236;-74
2022/06/26 09:04:37;;;;;;;5.32;3.10;;;36.30;49.80;;;;;;5034415;28;20221;-75
2022/06/26 09:07:28;;;;;;;2.80;2.60;;;36.10;49.80;;;;;;5025083;28;20299;-74
2022/06/26 09:10:17;;;;;;;3.10;2.67;;;35.50;50.60;;;;;;5008861;28;20217;-74
2022/06/26 09:13:06;;;;;;;3.20;2.90;;;36.00;49.40;;;;;;5011035;28;20219;-72
2022/06/26 09:15:59;;;;;;;2.78;2.58;;;36.40;47.60;;;;;;5019461;28;20232;-74
2022/06/26 09:18:47;;;;;;;4.88;2.90;;;37.20;47.50;;;;;;5022525;28;20232;-73
2022/06/26 09:21:36;;;;;;;4.82;2.45;;;37.50;46.60;;;;;;5023611;28;20237;-74
2022/06/26 09:24:26;;;;;;;3.67;2.50;;;38.50;45.10;;;;;;5008253;28;20225;-74
2022/06/26 09:27:15;;;;;;;3.78;2.38;;;39.40;44.60;;;;;;5023339;28;20236;-74
2022/06/26 09:30:04;;;;;;;4.82;2.75;;;40.30;44.30;;;;;;5018095;28;20221;-74
2022/06/26 09:32:54;;;;;;;3.50;2.28;;;39.80;43.20;;;;;;5009863;28;20237;-75
2022/06/26 09:35:42;;;;;;;3.58;2.80;;;39.10;44.30;;;;;;5024522;28;20242;-74
2022/06/26 09:38:32;;;;;;;3.55;2.45;;;39.40;42.90;;;;;;5021407;28;20260;-75
2022/06/26 09:41:31;;;;;;;5.00;2.60;;;39.20;43.10;;;;;;5020396;28;20230;-74
2022/06/26 09:44:20;;;;;;;3.05;2.50;;;40.10;43.20;;;;;;5022911;28;20233;-75
2022/06/26 09:47:21;;;;;;;3.85;2.40;;;40.30;41.80;;;;;;5003973;28;20221;-74
2022/06/26 09:50:10;;;;;;;2.88;2.20;;;40.60;42.00;;;;;;5026720;28;20220;-76
2022/06/26 09:52:58;;;;;;;2.90;2.60;;;41.10;41.60;;;;;;5022363;28;20221;-76
2022/06/26 09:55:50;;;;;;;2.50;2.30;;;41.50;40.40;;;;;;5022132;28;20282;-75
2022/06/26 09:58:44;;;;;;;2.50;2.30;;;41.00;40.20;;;;;;5020733;28;20232;-73
2022/06/26 10:07:48;;;;;;;4.47;2.10;;;44.30;38.60;;;;;;5025192;28;20224;-75
2022/06/26 10:10:37;;;;;;;3.70;2.10;;;45.10;37.30;;;;;;5024455;28;20557;-75
2022/06/26 10:13:26;;;;;;;2.47;1.80;;;45.60;37.00;;;;;;5019511;28;20225;-74
2022/06/26 10:16:29;;;;;;;2.08;1.92;;;45.80;34.90;;;;;;5014982;28;20224;-76
2022/06/26 10:19:25;;;;;;;6.97;2.15;;;45.90;34.80;;;;;;5006775;28;20899;-77
2022/06/26 10:22:14;;;;;;;3.83;2.45;;;45.80;35.50;;;;;;5022743;28;20225;-80
2022/06/26 10:25:03;;;;;;;3.20;2.90;;;45.80;34.60;;;;;;5018686;28;20532;-76
2022/06/26 10:27:52;;;;;;;4.20;2.20;;;45.30;34.70;;;;;;5019705;28;20238;-76
2022/06/26 10:30:40;;;;;;;3.63;2.40;;;45.40;35.70;;;;;;5022187;28;20228;-77
2022/06/26 10:33:30;;;;;;;2.42;2.13;;;46.00;34.30;;;;;;5019598;28;20822;-78
2022/06/26 10:36:22;;;;;;;2.42;2.20;;;44.70;35.30;;;;;;5019171;28;20976;-77
2022/06/26 10:39:11;;;;;;;2.88;2.20;;;44.70;35.70;;;;;;5015040;28;20224;-76
2022/06/26 10:45:11;;;;;;;3.10;2.10;;;46.30;34.30;;;;;;5015009;28;20541;-77
2022/06/26 10:48:01;;;;;;;2.45;2.28;;;45.20;34.40;;;;;;5023479;28;20249;-78
2022/06/26 10:50:58;;;;;;;2.40;2.20;;;45.60;35.30;;;;;;5008410;28;20320;-77
2022/06/26 10:53:47;;;;;;;3.70;2.00;;;45.50;34.50;;;;;;5024029;28;20285;-78
2022/06/26 10:56:35;;;;;;;4.38;2.20;;;45.10;34.30;;;;;;5009751;28;20217;-77
2022/06/26 10:59:24;;;;;;;2.58;2.38;;;45.80;34.20;;;;;;5026279;28;20346;-74
2022/06/26 11:02:13;;;;;;;2.78;2.00;;;47.40;34.30;;;;;;5021266;28;20218;-78
2022/06/26 11:05:02;;;;;;;3.78;2.25;;;47.20;32.60;;;;;;5023385;28;20354;-78
2022/06/26 11:07:53;;;;;;;7.40;2.35;;;46.70;32.90;;;;;;5016726;28;20261;-78
2022/06/26 11:10:46;;;;;;;5.25;2.25;;;46.80;33.40;;;;;;5026108;28;20251;-78
2022/06/26 11:13:36;;;;;;;8.43;2.30;;;47.40;33.20;;;;;;5023618;28;20232;-77
2022/06/26 11:16:32;;;;;;;3.03;2.30;;;47.40;33.20;;;;;;5018246;28;20522;-78
2022/06/26 11:19:23;;;;;;;2.30;2.20;;;46.60;33.20;;;;;;5028030;28;20231;-78
2022/06/26 11:22:13;;;;;;;6.10;2.10;;;44.50;34.10;;;;;;5018484;28;20257;-78
2022/06/26 11:25:04;;;;;;;3.40;2.22;;;45.20;34.00;;;;;;5020917;28;20225;-78
2022/06/26 11:27:58;;;;;;;5.05;2.22;;;45.00;34.70;;;;;;5004766;28;20236;-77
2022/06/26 11:30:48;;;;;;;5.28;2.20;;;46.30;35.50;;;;;;5008601;28;20228;-79
2022/06/26 11:33:38;;;;;;;4.72;2.47;;;47.00;33.30;;;;;;5019188;28;20223;-77
2022/06/26 11:36:27;;;;;;;2.63;2.42;;;46.20;32.70;;;;;;5011913;28;20233;-80
2022/06/26 11:39:16;;;;;;;2.63;2.17;;;47.00;34.30;;;;;;5022605;28;20309;-79
2022/06/26 11:42:16;;;;;;;3.88;2.25;;;47.10;32.50;;;;;;5042245;28;20228;-77
2022/06/26 11:45:06;;;;;;;4.90;2.50;;;47.30;32.00;;;;;;5023853;28;20303;-77
2022/06/26 11:47:55;;;;;;;3.40;2.33;;;47.60;33.20;;;;;;5008103;28;20711;-79
2022/06/26 11:50:45;;;;;;;2.30;2.20;;;47.90;32.70;;;;;;5022430;28;20354;-76
2022/06/26 11:53:34;;;;;;;2.55;2.30;;;46.30;33.10;;;;;;5010540;28;20339;-78
2022/06/26 11:56:26;;;;;;;5.18;2.30;;;46.00;33.10;;;;;;5020867;28;20569;-78
2022/06/26 11:59:17;;;;;;;2.90;2.38;;;46.90;33.00;;;;;;5017880;28;20320;-78
2022/06/26 12:02:05;;;;;;;2.55;2.35;;;46.50;33.90;;;;;;5022852;28;20232;-78
2022/06/26 12:04:57;;;;;;;2.58;2.20;;;46.30;32.40;;;;;;5018680;28;20222;-78
2022/06/26 12:07:48;;;;;;;7.82;2.20;;;44.90;33.60;;;;;;5020584;28;20225;-79
2022/06/26 12:10:37;;;;;;;2.78;2.35;;;43.60;34.90;;;;;;5010286;28;20225;-79
2022/06/26 12:13:30;;;;;;;2.47;2.28;;;44.30;36.10;;;;;;5001957;28;21419;-79
2022/06/26 12:16:20;;;;;;;5.22;2.90;;;45.10;34.50;;;;;;5006009;28;20584;-77
2022/06/26 12:19:09;;;;;;;3.88;2.85;;;45.40;34.70;;;;;;5021423;28;20237;-77
2022/06/26 12:22:00;;;;;;;3.35;2.30;;;45.30;34.70;;;;;;5026862;28;20224;-78
2022/06/26 12:24:50;;;;;;;2.65;2.30;;;45.40;33.50;;;;;;5013662;28;20239;-76
2022/06/26 12:27:42;;;;;;;2.92;2.10;;;45.70;34.00;;;;;;5011096;28;20224;-79
2022/06/26 12:30:34;;;;;;;2.10;2.00;;;44.90;33.70;;;;;;5011221;28;20569;-77
2022/06/26 12:33:24;;;;;;;3.92;2.38;;;45.60;34.80;;;;;;5028412;28;20232;-79
2022/06/26 12:36:12;;;;;;;2.72;2.50;;;45.70;34.00;;;;;;5025678;28;20319;-78
2022/06/26 12:39:02;;;;;;;2.55;2.35;;;45.60;33.60;;;;;;5009241;28;20225;-78
2022/06/26 12:42:11;;;;;;;5.65;2.20;;;44.70;35.10;;;;;;5008767;28;20221;-76
2022/06/26 12:44:59;;;;;;;3.60;2.15;;;43.70;34.80;;;;;;5019531;28;20271;-77
2022/06/26 12:47:49;;;;;;;3.03;2.25;;;43.30;35.70;;;;;;5019366;28;20319;-77
2022/06/26 12:50:39;;;;;;;2.67;2.38;;;43.30;35.70;;;;;;4999520;28;20237;-80
2022/06/26 12:53:28;;;;;;;4.10;2.10;;;43.60;35.80;;;;;;5027484;28;20232;-81
2022/06/26 12:56:17;;;;;;;2.35;2.25;;;43.10;35.90;;;;;;5019703;28;20226;-80
2022/06/26 12:59:06;;;;;;;2.10;2.00;;;40.90;37.00;;;;;;5006790;28;20803;-81
2022/06/26 13:01:54;;;;;;;4.05;2.60;;;39.00;39.70;;;;;;5015356;28;20216;-78
2022/06/26 13:04:43;;;;;;;3.83;2.42;;;37.40;41.40;;;;;;5028040;28;20327;-81
2022/06/26 13:07:33;;;;;;;4.45;2.22;;;36.20;43.30;;;;;;5023026;28;20302;-81
2022/06/26 13:10:23;;;;;;;4.47;2.50;;;35.90;44.30;;;;;;5028613;28;20229;-83
2022/06/26 13:13:12;;;;;;;2.60;2.40;;;35.60;45.10;;;;;;5027656;28;20363;-77
2022/06/26 13:16:01;;;;;;;3.25;2.60;;;;;;;;;;5014269;28;20307;-78
2022/06/26 13:18:50;;;;;;;3.95;2.70;;;35.10;45.10;;;;;;5019909;28;20623;-77
2022/06/26 13:21:39;;;;;;;2.85;2.65;;;34.90;46.70;;;;;;5022755;28;20232;-77
2022/06/26 13:24:29;;;;;;;3.67;2.90;;;34.90;48.20;;;;;;5023414;28;20793;-78
2022/06/26 13:27:18;;;;;;;3.28;2.85;;;34.70;47.30;;;;;;5020980;28;20235;-78
2022/06/26 13:30:08;;;;;;;5.75;2.53;;;34.40;47.60;;;;;;5020373;28;20216;-78
2022/06/26 13:32:56;;;;;;;2.88;2.65;;;33.90;47.40;;;;;;5018426;28;20663;-72
2022/06/26 13:35:45;;;;;;;3.13;2.53;;;33.80;47.90;;;;;;5026233;28;20309;-80
2022/06/26 13:38:33;;;;;;;4.78;2.58;;;33.70;48.30;;;;;;5020373;28;20231;-82
2022/06/26 13:41:23;;;;;;;3.30;2.83;;;33.60;48.80;;;;;;5021545;28;20213;-82
2022/06/26 13:44:12;;;;;;;3.15;2.67;;;33.50;49.00;;;;;;5024162;28;20212;-85
2022/06/26 13:47:01;;;;;;;3.72;3.22;;;33.50;49.40;;;;;;5022527;28;20660;-84
2022/06/26 13:49:50;;;;;;;2.78;2.58;;;;;;;;;;5019909;28;20303;-82
2022/06/26 13:52:40;;;;;;;3.20;2.47;;;33.50;48.40;;;;;;5024598;28;20225;-82
2022/06/26 13:55:28;;;;;;;4.93;3.25;;;33.20;49.30;;;;;;5019514;28;20788;-81
2022/06/26 13:58:19;;;;;;;3.03;2.50;;;33.10;49.70;;;;;;5011048;28;20247;-80
2022/06/26 14:01:07;;;;;;;2.78;2.53;;;33.00;49.90;;;;;;5021540;28;20339;-79
2022/06/26 14:03:56;;;;;;;3.67;2.92;;;33.00;50.10;;;;;;5017834;28;20217;-81
2022/06/26 14:06:45;;;;;;;3.00;2.60;;;32.90;50.80;;;;;;5006124;28;20255;-80
2022/06/26 14:09:35;;;;;;;3.22;2.72;;;32.80;49.70;;;;;;5023373;28;20556;-80
2022/06/26 14:12:30;;;;;;;3.92;2.45;;;33.00;50.20;;;;;;5015225;28;20252;-81
2022/06/26 14:15:20;;;;;;;4.60;3.03;;;32.80;50.00;;;;;;5018259;28;20221;-79
2022/06/26 14:18:08;;;;;;;3.60;3.00;;;32.70;51.00;;;;;;5030654;28;20220;-82
2022/06/26 14:20:57;;;;;;;4.60;2.97;;;32.60;51.10;;;;;;5019199;28;20221;-82
2022/06/26 14:26:52;;;;;;;30.17;12.70;;;32.40;52.50;;;;;;5028532;28;20315;-82
2022/06/26 14:29:44;;;;;;;6.53;4.50;;;32.40;51.70;;;;;;5023524;28;20225;-82
2022/06/26 14:32:34;;;;;;;3.10;2.78;;;32.20;51.40;;;;;;5017492;28;20209;-83
2022/06/26 14:35:23;;;;;;;4.20;2.90;;;31.80;51.40;;;;;;5017266;28;20312;-79
2022/06/26 14:38:12;;;;;;;3.50;3.20;;;31.60;52.30;;;;;;5008900;28;20215;-77
2022/06/26 14:41:03;;;;;;;3.17;2.88;;;31.80;52.30;;;;;;5021827;28;20217;-73
2022/06/26 14:43:51;;;;;;;3.10;2.90;;;31.90;52.50;;;;;;5003815;28;20228;-75
2022/06/26 14:46:40;;;;;;;8.07;3.28;;;32.00;52.40;;;;;;5015163;28;20236;-76
2022/06/26 14:49:30;;;;;;;3.33;3.03;;;31.70;52.00;;;;;;5021070;28;20528;-75
2022/06/26 14:52:20;;;;;;;3.17;2.85;;;31.60;52.10;;;;;;5018125;28;20213;-83
2022/06/26 14:55:11;;;;;;;4.95;3.00;;;31.50;52.00;;;;;;5031780;28;20340;-81
2022/06/26 14:57:59;;;;;;;3.50;2.85;;;31.60;52.40;;;;;;5026854;28;20248;-80
2022/06/26 15:00:49;;;;;;;3.85;3.17;;;31.60;52.30;;;;;;5019189;28;20363;-81
2022/06/26 15:03:38;;;;;;;3.80;3.35;;;31.70;52.70;;;;;;5015076;28;20267;-78
2022/06/26 15:06:28;;;;;;;7.15;3.30;;;31.80;52.80;;;;;;5020797;28;20319;-82
2022/06/26 15:09:17;;;;;;;5.35;3.40;;;31.90;52.40;;;;;;5024074;28;20244;-77